Time;durP1;ratioP1;P1;durP2;ratioP2;P2;SDS_P1;SDS_P2;PMS_P1;PMS_P2;Temp;Humidity;BMP_temperature;BMP_pressure;BME280_temperature;BME280_humidity;BME280_pressure;Samples;Min_cycle;Max_cycle;Signal;HPM_P1;HPM_P2
2023/03/15 00:00:41;;;;;;;10.87;5.67;;;9.10;99.90;;;;;;4994608;28;20186;-82
2023/03/15 00:03:07;;;;;;;14.97;6.07;;;9.10;99.90;;;;;;4961574;28;20647;-82
2023/03/15 00:05:33;;;;;;;9.90;5.63;;;9.00;99.90;;;;;;4994667;28;20604;-81
2023/03/15 00:07:59;;;;;;;8.90;4.63;;;9.00;99.90;;;;;;4994556;28;20553;-82
2023/03/15 00:10:24;;;;;;;10.88;5.10;;;9.00;99.90;;;;;;4993668;28;20193;-81
2023/03/15 00:12:50;;;;;;;7.80;4.03;;;9.00;99.90;;;;;;4994506;28;20193;-81
2023/03/15 00:15:16;;;;;;;7.67;4.83;;;9.00;99.90;;;;;;4994324;28;20186;-81
2023/03/15 00:17:43;;;;;;;9.85;4.20;;;9.00;99.90;;;;;;4977113;28;20711;-81
2023/03/15 00:20:10;;;;;;;7.60;3.97;;;8.90;99.90;;;;;;4977616;28;20182;-82
2023/03/15 00:22:35;;;;;;;7.17;4.17;;;8.90;99.90;;;;;;4994389;28;20200;-82
2023/03/15 00:25:01;;;;;;;8.57;4.33;;;8.90;99.90;;;;;;4976272;28;20213;-82
2023/03/15 00:27:27;;;;;;;6.13;4.00;;;8.90;99.90;;;;;;4977114;28;20659;-82
2023/03/15 00:29:52;;;;;;;10.97;4.63;;;8.90;99.90;;;;;;4960832;28;20190;-81
2023/03/15 00:32:18;;;;;;;8.50;4.20;;;8.90;99.90;;;;;;4976835;28;20182;-82
2023/03/15 00:34:47;;;;;;;9.47;4.20;;;8.90;99.90;;;;;;4976790;28;20186;-82
2023/03/15 00:37:15;;;;;;;7.07;4.13;;;8.80;99.90;;;;;;4993068;28;20559;-82
2023/03/15 00:39:44;;;;;;;7.22;3.70;;;8.80;99.90;;;;;;4976760;28;20213;-82
2023/03/15 00:42:10;;;;;;;11.82;4.05;;;8.80;99.90;;;;;;4994012;28;20216;-82
2023/03/15 00:44:36;;;;;;;9.03;4.27;;;8.70;99.90;;;;;;5006409;28;20217;-82
2023/03/15 00:47:02;;;;;;;12.03;3.87;;;8.70;99.90;;;;;;4995233;28;20186;-82
2023/03/15 00:49:27;;;;;;;12.50;4.93;;;8.70;99.90;;;;;;4992857;28;20240;-82
2023/03/15 00:51:56;;;;;;;7.93;4.80;;;8.60;99.90;;;;;;4976515;28;20655;-82
2023/03/15 00:54:23;;;;;;;8.50;4.07;;;8.60;99.90;;;;;;4976827;28;20197;-81
2023/03/15 00:56:49;;;;;;;11.47;4.93;;;8.60;99.90;;;;;;4993607;28;20236;-82
2023/03/15 00:59:14;;;;;;;7.33;4.20;;;8.60;99.90;;;;;;4976653;28;20185;-82
2023/03/15 01:01:43;;;;;;;7.70;3.97;;;8.50;99.90;;;;;;4976599;28;20208;-83
2023/03/15 01:04:10;;;;;;;9.77;3.87;;;8.50;99.90;;;;;;4993514;28;20253;-83
2023/03/15 01:06:36;;;;;;;5.70;4.37;;;8.50;99.90;;;;;;4993882;28;20705;-83
2023/03/15 01:09:03;;;;;;;6.47;3.97;;;8.50;99.90;;;;;;4993648;28;20281;-84
2023/03/15 01:11:29;;;;;;;7.67;3.87;;;8.50;99.90;;;;;;4976230;28;20662;-82
2023/03/15 01:13:57;;;;;;;7.70;4.00;;;8.50;99.90;;;;;;4993834;28;20186;-83
2023/03/15 01:16:24;;;;;;;8.83;3.70;;;8.60;99.90;;;;;;4993698;28;20265;-82
2023/03/15 01:18:52;;;;;;;7.60;4.10;;;8.60;99.90;;;;;;4993641;28;20649;-82
2023/03/15 01:21:19;;;;;;;5.27;3.87;;;8.60;99.90;;;;;;4993902;28;20182;-81
2023/03/15 01:23:45;;;;;;;7.83;3.97;;;8.60;99.90;;;;;;5000017;28;20217;-82
2023/03/15 01:26:13;;;;;;;9.70;4.63;;;8.60;99.90;;;;;;5013251;28;20703;-82
2023/03/15 01:28:40;;;;;;;7.93;3.97;;;8.70;99.90;;;;;;5013488;28;20196;-82
2023/03/15 01:31:05;;;;;;;8.80;4.30;;;8.60;99.90;;;;;;5013088;28;20273;-82
2023/03/15 01:33:31;;;;;;;8.00;3.83;;;8.70;99.90;;;;;;5013425;28;20268;-82
2023/03/15 01:35:59;;;;;;;8.40;3.97;;;8.70;99.90;;;;;;4969486;28;20190;-82
2023/03/15 01:38:25;;;;;;;6.77;3.77;;;8.60;99.90;;;;;;4995248;28;20181;-83
2023/03/15 01:40:51;;;;;;;11.33;4.83;;;8.70;99.90;;;;;;4994389;28;20289;-82
2023/03/15 01:43:22;;;;;;;6.57;4.10;;;8.70;99.90;;;;;;4995951;28;20213;-82
2023/03/15 01:46:25;;;;;;;7.83;4.30;;;8.70;99.90;;;;;;4997272;28;20209;-82
2023/03/15 01:49:02;;;;;;;5.50;3.97;;;8.60;99.90;;;;;;5004147;28;20211;-83
2023/03/15 01:51:47;;;;;;;9.67;4.80;;;8.60;99.90;;;;;;5016486;28;20187;-83
2023/03/15 01:54:19;;;;;;;9.33;5.13;;;8.70;99.90;;;;;;4988825;28;20200;-83
2023/03/15 01:56:58;;;;;;;7.73;4.00;;;8.70;99.90;;;;;;5010120;28;20196;-83
2023/03/15 01:59:30;;;;;;;7.60;3.80;;;8.70;99.90;;;;;;5011931;28;20192;-84
2023/03/15 02:01:57;;;;;;;8.60;4.03;;;8.70;99.90;;;;;;4996726;28;20173;-84
2023/03/15 02:04:40;;;;;;;7.97;3.80;;;8.70;99.90;;;;;;5006584;28;20248;-84
2023/03/15 02:07:08;;;;;;;6.20;3.77;;;8.60;99.90;;;;;;4998223;28;20650;-83
2023/03/15 02:09:49;;;;;;;6.10;3.40;;;8.60;99.90;;;;;;4997408;28;20189;-84
2023/03/15 02:12:16;;;;;;;6.63;3.77;;;8.60;99.90;;;;;;5014591;28;20216;-84
2023/03/15 02:14:43;;;;;;;5.97;4.07;;;8.50;99.90;;;;;;5015159;28;20194;-83
2023/03/15 02:17:10;;;;;;;9.67;4.07;;;8.60;99.90;;;;;;4983006;28;20234;-83
2023/03/15 02:20:04;;;;;;;14.00;4.67;;;8.50;99.90;;;;;;4989834;28;20229;-83
2023/03/15 02:22:54;;;;;;;13.23;3.80;;;8.50;99.90;;;;;;4957370;28;20289;-84
2023/03/15 02:25:20;;;;;;;5.80;4.17;;;8.50;99.90;;;;;;4988718;28;20674;-83
2023/03/15 02:27:46;;;;;;;5.73;3.97;;;8.50;99.90;;;;;;4995505;28;20177;-82
2023/03/15 02:30:13;;;;;;;4.77;3.33;;;8.50;99.90;;;;;;4977992;28;20190;-82
2023/03/15 02:32:39;;;;;;;7.53;4.33;;;8.50;99.90;;;;;;4992558;28;20198;-83
2023/03/15 02:35:05;;;;;;;7.83;4.30;;;8.50;99.90;;;;;;4980302;28;20190;-82
2023/03/15 02:37:31;;;;;;;6.33;3.27;;;8.50;99.90;;;;;;4960544;28;20253;-81
2023/03/15 02:39:56;;;;;;;7.07;4.37;;;8.50;99.90;;;;;;4976089;28;20190;-82
2023/03/15 02:42:23;;;;;;;6.20;3.43;;;8.50;99.90;;;;;;4988256;28;20204;-82
2023/03/15 02:44:50;;;;;;;8.57;4.83;;;8.50;99.90;;;;;;4994941;28;20237;-83
2023/03/15 02:47:23;;;;;;;10.17;4.80;;;8.50;99.90;;;;;;4992873;28;20192;-83
2023/03/15 02:49:52;;;;;;;7.90;4.07;;;8.60;99.90;;;;;;4982190;28;20190;-83
2023/03/15 02:52:18;;;;;;;6.30;3.53;;;8.70;99.90;;;;;;4984594;28;20544;-83
2023/03/15 02:54:44;;;;;;;6.43;4.43;;;8.60;99.90;;;;;;4982712;28;20280;-83
2023/03/15 02:57:15;;;;;;;8.07;4.17;;;8.60;99.90;;;;;;4980110;28;20282;-83
2023/03/15 02:59:43;;;;;;;6.93;3.97;;;8.70;99.90;;;;;;4978256;28;20213;-85
2023/03/15 03:02:12;;;;;;;7.03;4.37;;;8.70;99.90;;;;;;4976079;28;20262;-84
2023/03/15 03:04:40;;;;;;;8.03;3.93;;;8.80;99.90;;;;;;4974883;28;20253;-83
2023/03/15 03:07:06;;;;;;;7.70;3.80;;;8.80;99.90;;;;;;4990972;28;20232;-84
2023/03/15 03:09:32;;;;;;;5.80;3.57;;;8.90;99.90;;;;;;4976185;28;20198;-84
2023/03/15 03:11:58;;;;;;;3.23;2.63;;;8.80;99.90;;;;;;4974957;28;20600;-85
2023/03/15 03:14:24;;;;;;;6.47;4.03;;;8.70;99.90;;;;;;4976120;28;20437;-84
2023/03/15 03:16:50;;;;;;;5.90;3.73;;;8.50;99.90;;;;;;4991929;28;20233;-84
2023/03/15 03:19:16;;;;;;;5.30;3.77;;;8.30;99.90;;;;;;4994771;28;20208;-84
2023/03/15 03:21:43;;;;;;;5.27;2.60;;;8.10;99.90;;;;;;5007579;28;20197;-84
2023/03/15 03:24:10;;;;;;;2.30;1.97;;;7.90;99.90;;;;;;4996195;28;20315;-82
2023/03/15 03:26:36;;;;;;;2.50;1.90;;;7.50;99.90;;;;;;4995457;28;20181;-83
2023/03/15 03:29:04;;;;;;;1.77;1.43;;;7.30;99.90;;;;;;4995544;28;20185;-81
2023/03/15 03:31:33;;;;;;;2.27;2.07;;;7.00;99.90;;;;;;4995736;28;20189;-83
2023/03/15 03:33:59;;;;;;;2.13;1.47;;;6.70;99.90;;;;;;5008138;28;20189;-83
2023/03/15 03:36:25;;;;;;;3.13;2.33;;;6.60;99.90;;;;;;5000878;28;20605;-82
2023/03/15 03:38:52;;;;;;;2.03;1.63;;;6.40;99.90;;;;;;5001762;28;20654;-83
2023/03/15 03:41:18;;;;;;;1.13;1.10;;;6.20;99.90;;;;;;4996736;28;20553;-82
2023/03/15 03:43:44;;;;;;;2.40;2.20;;;6.10;99.90;;;;;;4997644;28;20291;-84
2023/03/15 03:46:10;;;;;;;3.00;1.73;;;6.00;99.90;;;;;;5011878;28;20519;-83
2023/03/15 03:48:35;;;;;;;3.30;2.40;;;5.80;99.90;;;;;;5014674;28;20544;-83
2023/03/15 03:51:01;;;;;;;1.80;1.67;;;5.70;99.90;;;;;;4996374;28;20652;-82
2023/03/15 03:53:27;;;;;;;2.23;1.93;;;5.60;99.90;;;;;;5013624;28;20673;-82
2023/03/15 03:55:53;;;;;;;7.63;3.83;;;5.50;99.90;;;;;;4997004;28;20231;-83
2023/03/15 03:58:19;;;;;;;2.77;2.23;;;5.40;99.90;;;;;;5009324;28;20665;-85
2023/03/15 04:00:45;;;;;;;3.30;2.87;;;5.30;99.90;;;;;;4986322;28;20192;-82
2023/03/15 04:03:11;;;;;;;1.70;1.60;;;5.20;99.90;;;;;;4995470;28;20554;-83
2023/03/15 04:05:37;;;;;;;3.13;2.20;;;5.20;99.90;;;;;;5006361;28;20284;-85
2023/03/15 04:08:02;;;;;;;7.43;4.10;;;5.20;99.90;;;;;;4977399;28;20178;-82
2023/03/15 04:10:28;;;;;;;7.00;3.97;;;5.10;99.90;;;;;;4994360;28;21043;-86
2023/03/15 04:12:55;;;;;;;5.20;3.20;;;5.00;99.90;;;;;;4997895;28;20225;-83
2023/03/15 04:15:22;;;;;;;7.73;4.03;;;5.00;99.90;;;;;;4994432;28;20186;-84
2023/03/15 04:17:54;;;;;;;5.17;3.50;;;4.90;99.90;;;;;;4994968;28;20221;-84
2023/03/15 04:20:21;;;;;;;2.77;2.57;;;4.90;99.90;;;;;;4994293;28;20192;-83
2023/03/15 04:22:48;;;;;;;3.40;2.27;;;4.90;99.90;;;;;;4977272;28;20190;-84
2023/03/15 04:25:18;;;;;;;1.47;1.37;;;4.80;99.90;;;;;;4995317;28;20213;-83
2023/03/15 04:27:44;;;;;;;7.27;2.43;;;4.80;99.90;;;;;;5018682;28;20193;-82
2023/03/15 04:30:11;;;;;;;3.57;3.10;;;4.80;99.90;;;;;;5017250;28;20544;-81
2023/03/15 04:32:37;;;;;;;2.07;1.60;;;4.70;99.90;;;;;;5017534;28;20181;-82
2023/03/15 04:35:04;;;;;;;2.67;1.70;;;4.70;99.90;;;;;;4996389;28;20627;-83
2023/03/15 04:37:33;;;;;;;2.00;1.37;;;4.60;99.90;;;;;;4988823;28;20189;-81
2023/03/15 04:40:00;;;;;;;1.83;1.30;;;4.60;99.90;;;;;;5012841;28;20203;-82
2023/03/15 04:42:25;;;;;;;1.30;1.10;;;4.60;99.90;;;;;;4971033;28;20185;-82
2023/03/15 04:44:52;;;;;;;1.73;1.37;;;4.60;99.90;;;;;;4998869;28;20216;-82
2023/03/15 04:47:19;;;;;;;1.03;1.00;;;4.60;99.90;;;;;;5016542;28;20205;-82
2023/03/15 04:49:45;;;;;;;0.93;0.93;;;4.60;99.90;;;;;;5000430;28;20209;-82
2023/03/15 04:52:10;;;;;;;3.03;1.97;;;4.40;99.90;;;;;;4994279;28;20585;-83
2023/03/15 04:54:38;;;;;;;1.37;1.23;;;4.40;99.90;;;;;;5009409;28;20194;-83
2023/03/15 04:57:03;;;;;;;3.80;1.90;;;4.30;99.90;;;;;;5007229;28;20197;-83
2023/03/15 04:59:29;;;;;;;2.77;1.63;;;4.30;99.90;;;;;;4982603;28;20181;-83
2023/03/15 05:01:55;;;;;;;2.13;1.33;;;4.20;99.90;;;;;;5015298;28;20192;-82
2023/03/15 05:04:21;;;;;;;2.07;1.93;;;4.30;99.90;;;;;;5019381;28;20217;-82
2023/03/15 05:06:46;;;;;;;11.37;2.43;;;4.20;99.90;;;;;;5020389;28;20284;-82
2023/03/15 05:09:17;;;;;;;2.73;2.20;;;4.20;99.90;;;;;;5033389;28;20185;-82
2023/03/15 05:11:44;;;;;;;2.43;1.47;;;4.10;99.90;;;;;;5008346;28;20188;-82
2023/03/15 05:14:10;;;;;;;3.07;1.70;;;4.00;99.90;;;;;;5013646;28;20204;-83
2023/03/15 05:16:36;;;;;;;2.13;1.93;;;4.10;99.90;;;;;;5010220;28;20299;-83
2023/03/15 05:19:02;;;;;;;1.70;1.40;;;4.10;99.90;;;;;;5036469;28;20201;-82
2023/03/15 05:21:28;;;;;;;3.17;1.93;;;4.10;99.90;;;;;;5033187;28;20200;-83
2023/03/15 05:23:53;;;;;;;5.37;1.77;;;4.10;99.90;;;;;;5013649;28;20217;-82
2023/03/15 05:26:19;;;;;;;1.80;1.30;;;4.10;99.90;;;;;;5010763;28;20189;-83
2023/03/15 05:28:45;;;;;;;2.50;1.60;;;4.10;99.90;;;;;;4992299;28;20189;-81
2023/03/15 05:31:10;;;;;;;7.17;1.70;;;4.10;99.90;;;;;;4987092;28;20740;-83
2023/03/15 05:33:36;;;;;;;2.73;1.80;;;4.00;99.90;;;;;;4993587;28;20197;-82
2023/03/15 05:36:03;;;;;;;3.20;2.03;;;4.00;99.90;;;;;;4998174;28;20676;-83
2023/03/15 05:38:30;;;;;;;2.20;1.57;;;4.00;99.90;;;;;;4982817;28;20197;-83
2023/03/15 05:40:55;;;;;;;4.90;1.53;;;4.00;99.90;;;;;;4994002;28;20561;-82
2023/03/15 05:43:21;;;;;;;2.53;1.60;;;3.90;99.90;;;;;;5010692;28;20220;-82
2023/03/15 05:45:47;;;;;;;4.23;2.30;;;3.90;99.90;;;;;;5009472;28;20201;-82
2023/03/15 05:48:14;;;;;;;1.80;1.70;;;3.90;99.90;;;;;;5000042;28;20194;-82
2023/03/15 05:50:40;;;;;;;2.20;1.67;;;3.90;99.90;;;;;;5000845;28;20185;-81
2023/03/15 05:53:05;;;;;;;2.30;1.73;;;3.90;99.90;;;;;;5004761;28;20191;-81
2023/03/15 05:55:31;;;;;;;2.97;2.17;;;4.00;99.90;;;;;;4993085;28;20193;-81
2023/03/15 05:57:57;;;;;;;1.47;1.37;;;3.90;99.90;;;;;;4993654;28;20189;-82
2023/03/15 06:00:22;;;;;;;2.00;1.43;;;4.00;99.90;;;;;;5006621;28;20713;-83
2023/03/15 06:02:48;;;;;;;2.57;2.37;;;3.90;99.90;;;;;;4978877;28;20685;-81
2023/03/15 06:05:14;;;;;;;2.37;1.90;;;3.90;99.90;;;;;;4995168;28;20228;-83
2023/03/15 06:07:40;;;;;;;2.40;2.07;;;3.90;99.90;;;;;;5012383;28;20181;-82
2023/03/15 06:10:06;;;;;;;3.23;1.60;;;3.90;99.90;;;;;;4995654;28;20208;-80
2023/03/15 06:12:31;;;;;;;1.67;1.40;;;3.90;99.90;;;;;;4979022;28;20635;-81
2023/03/15 06:14:57;;;;;;;3.50;2.00;;;4.00;99.90;;;;;;5011017;28;20205;-82
2023/03/15 06:17:23;;;;;;;4.10;1.87;;;4.00;99.90;;;;;;4997611;28;20241;-81
2023/03/15 06:19:49;;;;;;;2.77;1.90;;;4.00;99.90;;;;;;4992802;28;20579;-83
2023/03/15 06:22:18;;;;;;;3.57;2.27;;;4.00;99.90;;;;;;4975640;28;20186;-80
2023/03/15 06:24:44;;;;;;;3.03;1.87;;;4.00;99.90;;;;;;4978395;28;20210;-80
2023/03/15 06:27:10;;;;;;;2.40;1.90;;;4.00;99.90;;;;;;5001378;28;20252;-80
2023/03/15 06:29:35;;;;;;;1.30;1.20;;;4.10;99.90;;;;;;4989572;28;20239;-80
2023/03/15 06:32:02;;;;;;;2.60;2.20;;;4.00;99.90;;;;;;5016081;28;20241;-80
2023/03/15 06:34:27;;;;;;;2.53;1.97;;;4.00;99.90;;;;;;4992746;28;20189;-80
2023/03/15 06:36:53;;;;;;;1.07;1.07;;;3.90;99.90;;;;;;5005156;28;20280;-79
2023/03/15 06:39:19;;;;;;;3.17;1.43;;;3.90;99.90;;;;;;4979016;28;20727;-79
2023/03/15 06:41:44;;;;;;;1.63;1.53;;;3.90;99.90;;;;;;5000449;28;20196;-79
2023/03/15 06:44:10;;;;;;;4.37;2.40;;;4.00;99.90;;;;;;4989453;28;20315;-80
2023/03/15 06:46:36;;;;;;;2.50;1.73;;;4.00;99.90;;;;;;5015550;28;20173;-80
2023/03/15 06:49:02;;;;;;;2.77;1.70;;;4.00;99.90;;;;;;5012776;28;20718;-80
2023/03/15 06:51:28;;;;;;;2.17;1.60;;;4.00;99.90;;;;;;4997134;28;20191;-80
2023/03/15 06:53:54;;;;;;;3.93;1.70;;;4.70;99.90;;;;;;4992178;28;20193;-80
2023/03/15 06:56:20;;;;;;;1.33;1.23;;;4.00;99.90;;;;;;4978501;28;20193;-80
2023/03/15 06:58:45;;;;;;;1.70;1.17;;;4.10;99.90;;;;;;4995727;28;20181;-80
2023/03/15 07:01:15;;;;;;;1.83;1.20;;;4.10;99.90;;;;;;4995882;28;20193;-80
2023/03/15 07:03:41;;;;;;;2.47;2.13;;;4.10;99.90;;;;;;5002990;28;20302;-80
2023/03/15 07:06:07;;;;;;;1.53;1.03;;;4.10;99.90;;;;;;5011344;28;20716;-80
2023/03/15 07:08:32;;;;;;;3.40;2.03;;;4.10;99.90;;;;;;4997160;28;20185;-81
2023/03/15 07:10:58;;;;;;;1.30;1.20;;;4.20;99.90;;;;;;5010648;28;20699;-80
2023/03/15 07:13:24;;;;;;;4.00;2.63;;;4.20;99.90;;;;;;5012124;28;20236;-80
2023/03/15 07:15:53;;;;;;;3.57;1.83;;;4.20;99.90;;;;;;5014389;28;20181;-80
2023/03/15 07:18:19;;;;;;;1.47;1.37;;;4.20;99.90;;;;;;5012582;28;20208;-80
2023/03/15 07:20:45;;;;;;;1.27;1.17;;;4.20;99.90;;;;;;5010305;28;20587;-80
2023/03/15 07:23:11;;;;;;;5.10;2.30;;;4.20;99.90;;;;;;5014426;28;20181;-80
2023/03/15 07:25:37;;;;;;;3.97;1.77;;;4.20;99.90;;;;;;4996929;28;20548;-80
2023/03/15 07:28:03;;;;;;;1.73;1.60;;;4.30;99.90;;;;;;5013722;28;20246;-80
2023/03/15 07:30:28;;;;;;;2.50;1.50;;;4.20;99.90;;;;;;4993274;28;20204;-80
2023/03/15 07:32:54;;;;;;;7.80;1.90;;;4.20;99.90;;;;;;5015506;28;20196;-80
2023/03/15 07:35:20;;;;;;;2.73;1.90;;;4.20;99.90;;;;;;4970942;28;20217;-80
2023/03/15 07:37:45;;;;;;;3.47;2.20;;;4.20;99.90;;;;;;5011995;28;20212;-80
2023/03/15 07:40:12;;;;;;;2.70;1.77;;;4.20;99.90;;;;;;5004522;28;20242;-81
2023/03/15 07:42:39;;;;;;;3.70;2.20;;;4.20;99.90;;;;;;5005524;28;20273;-81
2023/03/15 07:45:06;;;;;;;2.00;1.60;;;4.20;99.90;;;;;;5017299;28;20219;-80
2023/03/15 07:47:32;;;;;;;2.77;2.03;;;4.30;99.90;;;;;;5019969;28;20181;-80
2023/03/15 07:49:57;;;;;;;2.70;1.50;;;4.20;99.90;;;;;;5002276;28;20248;-80
2023/03/15 07:52:24;;;;;;;2.97;2.03;;;4.30;99.90;;;;;;5003859;28;20197;-81
2023/03/15 07:54:50;;;;;;;2.93;1.90;;;4.20;99.90;;;;;;4993449;28;20185;-81
2023/03/15 07:57:15;;;;;;;6.40;2.70;;;4.20;99.90;;;;;;4981295;28;20181;-81
2023/03/15 07:59:41;;;;;;;3.00;1.83;;;4.20;99.90;;;;;;5003624;28;20188;-82
2023/03/15 08:02:10;;;;;;;8.33;2.90;;;4.30;99.90;;;;;;5014311;28;20271;-81
2023/03/15 08:04:36;;;;;;;7.73;3.93;;;4.30;99.90;;;;;;5014156;28;20250;-80
2023/03/15 08:07:02;;;;;;;5.93;2.83;;;4.30;99.90;;;;;;4996456;28;20209;-80
2023/03/15 08:09:27;;;;;;;4.37;2.73;;;4.20;99.90;;;;;;5014403;28;20185;-80
2023/03/15 08:11:53;;;;;;;3.23;2.30;;;4.20;99.90;;;;;;5012042;28;20186;-81
2023/03/15 08:14:19;;;;;;;6.37;2.70;;;4.10;99.90;;;;;;4986582;28;20676;-79
2023/03/15 08:16:44;;;;;;;4.93;1.90;;;4.10;99.90;;;;;;5005688;28;20237;-80
2023/03/15 08:19:10;;;;;;;9.27;2.80;;;4.10;99.90;;;;;;4994717;28;20185;-80
2023/03/15 08:21:36;;;;;;;4.07;2.07;;;;;;;;;;4993254;28;20190;-81
2023/03/15 08:24:02;;;;;;;3.17;2.37;;;4.00;99.90;;;;;;4976801;28;20237;-79
2023/03/15 08:26:27;;;;;;;3.03;2.17;;;4.00;99.90;;;;;;5000929;28;20202;-79
2023/03/15 08:28:53;;;;;;;5.27;3.17;;;4.00;99.90;;;;;;5010323;28;20276;-80
2023/03/15 08:31:19;;;;;;;3.83;2.77;;;4.00;99.90;;;;;;5013770;28;20692;-79
2023/03/15 08:33:44;;;;;;;5.83;2.80;;;4.00;99.90;;;;;;5013556;28;20272;-80
2023/03/15 08:36:10;;;;;;;9.00;3.63;;;4.00;99.90;;;;;;4996201;28;20255;-79
2023/03/15 08:38:36;;;;;;;2.60;2.40;;;4.00;99.90;;;;;;4996011;28;20177;-79
2023/03/15 08:41:02;;;;;;;10.33;3.57;;;4.10;99.90;;;;;;4985346;28;20196;-81
2023/03/15 08:43:28;;;;;;;8.00;2.60;;;4.10;99.90;;;;;;5013788;28;20193;-79
2023/03/15 08:45:53;;;;;;;4.50;2.93;;;4.10;99.90;;;;;;5012999;28;20203;-79
2023/03/15 08:48:19;;;;;;;6.53;2.97;;;4.10;99.90;;;;;;5014076;28;20177;-80
2023/03/15 08:50:45;;;;;;;4.80;2.40;;;4.10;99.90;;;;;;5005362;28;20185;-80
2023/03/15 08:53:10;;;;;;;6.57;3.43;;;4.10;99.90;;;;;;4996067;28;20189;-82
2023/03/15 08:55:37;;;;;;;4.50;2.50;;;4.00;99.90;;;;;;4982576;28;20196;-80
2023/03/15 08:58:03;;;;;;;4.77;1.90;;;4.00;99.90;;;;;;4993605;28;20181;-81
2023/03/15 09:00:29;;;;;;;7.50;3.20;;;4.00;99.90;;;;;;5003344;28;20180;-80
2023/03/15 09:02:55;;;;;;;10.40;2.33;;;4.10;99.90;;;;;;4996977;28;20548;-80
2023/03/15 09:05:22;;;;;;;6.03;2.60;;;4.10;99.90;;;;;;4995875;28;20221;-80
2023/03/15 09:07:48;;;;;;;4.20;2.53;;;4.10;99.90;;;;;;4985925;28;20193;-80
2023/03/15 09:10:16;;;;;;;4.10;2.47;;;4.10;99.90;;;;;;4993544;28;20260;-80
2023/03/15 09:12:52;;;;;;;6.83;2.37;;;4.10;99.90;;;;;;4992647;28;20190;-80
2023/03/15 09:15:18;;;;;;;4.10;2.10;;;4.10;99.90;;;;;;4993629;28;20247;-81
2023/03/15 09:17:44;;;;;;;9.20;2.97;;;4.20;99.90;;;;;;4993953;28;20236;-80
2023/03/15 09:20:15;;;;;;;3.80;2.10;;;4.20;99.90;;;;;;4992326;28;20192;-81
2023/03/15 09:22:49;;;;;;;1.80;1.40;;;4.20;99.90;;;;;;4993456;28;20178;-80
2023/03/15 09:25:15;;;;;;;2.40;1.67;;;4.30;99.90;;;;;;4976130;28;20212;-81
2023/03/15 09:27:41;;;;;;;4.00;2.70;;;4.30;99.90;;;;;;4993441;28;20240;-79
2023/03/15 09:30:07;;;;;;;6.53;2.50;;;4.20;99.90;;;;;;4993468;28;20189;-79
2023/03/15 09:32:35;;;;;;;3.33;2.00;;;4.10;99.90;;;;;;4993496;28;20182;-80
2023/03/15 09:35:04;;;;;;;5.67;2.70;;;4.10;99.90;;;;;;4992020;28;20182;-81
2023/03/15 09:37:30;;;;;;;4.77;2.57;;;4.10;99.90;;;;;;4993470;28;20174;-80
2023/03/15 09:39:56;;;;;;;7.33;2.53;;;4.30;99.90;;;;;;4993138;28;20697;-81
2023/03/15 09:42:51;;;;;;;4.50;2.17;;;4.30;99.90;;;;;;4993775;28;20181;-80
2023/03/15 09:45:53;;;;;;;2.73;2.47;;;4.30;99.90;;;;;;4993522;28;20620;-80
2023/03/15 09:49:03;;;;;;;3.13;2.23;;;4.30;99.90;;;;;;4976087;28;20181;-80
2023/03/15 09:51:34;;;;;;;3.87;1.93;;;4.40;99.90;;;;;;4990391;28;20280;-80
2023/03/15 09:54:04;;;;;;;6.47;1.97;;;4.50;99.90;;;;;;4993223;28;20171;-81
2023/03/15 09:56:36;;;;;;;2.30;1.30;;;4.60;99.90;;;;;;4993308;28;20174;-80
2023/03/15 09:59:02;;;;;;;4.87;2.17;;;4.50;99.90;;;;;;4994443;28;20677;-80
2023/03/15 10:01:34;;;;;;;3.90;2.23;;;4.50;99.90;;;;;;4997220;28;20181;-80
2023/03/15 10:04:23;;;;;;;2.83;1.80;;;4.70;99.90;;;;;;4995540;28;20215;-80
2023/03/15 10:06:54;;;;;;;2.67;1.90;;;4.70;99.90;;;;;;4997127;28;20176;-80
2023/03/15 10:09:22;;;;;;;2.43;1.70;;;4.70;99.90;;;;;;4995856;28;20690;-80
2023/03/15 10:12:03;;;;;;;6.13;2.90;;;4.80;99.90;;;;;;4997136;28;20178;-80
2023/03/15 10:14:59;;;;;;;8.50;1.97;;;4.70;99.90;;;;;;4997337;28;20550;-80
2023/03/15 10:17:41;;;;;;;5.20;1.97;;;4.70;99.90;;;;;;4996862;28;20233;-80
2023/03/15 10:20:14;;;;;;;3.40;2.03;;;4.80;99.90;;;;;;4995424;28;20178;-80
2023/03/15 10:22:51;;;;;;;2.33;1.83;;;4.80;99.90;;;;;;4996838;28;20182;-80
2023/03/15 10:25:25;;;;;;;3.93;2.30;;;5.00;99.90;;;;;;4996456;28;20213;-80
2023/03/15 10:28:01;;;;;;;5.87;1.83;;;5.00;99.90;;;;;;4995732;28;20637;-80
2023/03/15 10:30:30;;;;;;;2.73;1.93;;;5.00;99.90;;;;;;4996655;28;20178;-80
2023/03/15 10:33:02;;;;;;;2.77;1.87;;;5.10;99.90;;;;;;4996832;28;20185;-80
2023/03/15 10:35:28;;;;;;;4.43;1.77;;;5.00;99.90;;;;;;4996657;28;20647;-80
2023/03/15 10:37:54;;;;;;;3.40;2.40;;;5.00;99.90;;;;;;4996785;28;20194;-80
2023/03/15 10:40:42;;;;;;;3.40;2.20;;;5.00;99.90;;;;;;4979134;28;20717;-80
2023/03/15 10:43:23;;;;;;;4.43;3.23;;;4.90;99.90;;;;;;5011954;28;20248;-80
2023/03/15 10:46:06;;;;;;;4.17;2.60;;;5.00;99.90;;;;;;5020546;28;20250;-81
2023/03/15 10:48:34;;;;;;;4.47;2.30;;;5.20;99.90;;;;;;5003074;28;20166;-79
2023/03/15 10:51:24;;;;;;;6.93;2.90;;;5.10;99.90;;;;;;5027935;28;20198;-80
2023/03/15 10:53:55;;;;;;;7.83;2.60;;;5.10;99.90;;;;;;5009856;28;20190;-79
2023/03/15 10:56:27;;;;;;;3.33;2.40;;;5.10;99.90;;;;;;5015759;28;20219;-80
2023/03/15 10:58:55;;;;;;;2.40;2.13;;;5.00;99.90;;;;;;5023400;28;20193;-79
2023/03/15 11:01:33;;;;;;;2.13;1.93;;;4.90;99.90;;;;;;5002622;28;20998;-80
2023/03/15 11:04:22;;;;;;;8.17;2.60;;;4.90;99.90;;;;;;5017522;28;20267;-80
2023/03/15 11:06:57;;;;;;;5.67;2.37;;;5.00;99.90;;;;;;5015878;28;20181;-80
2023/03/15 11:09:25;;;;;;;3.37;2.43;;;5.00;99.90;;;;;;5003425;28;20174;-79
2023/03/15 11:12:07;;;;;;;3.30;2.50;;;5.00;99.90;;;;;;4995665;28;20170;-80
2023/03/15 11:14:38;;;;;;;4.10;2.30;;;5.00;99.90;;;;;;4996119;28;20218;-79
2023/03/15 11:17:07;;;;;;;4.13;2.80;;;5.10;99.90;;;;;;5006126;28;20316;-80
2023/03/15 11:19:41;;;;;;;4.07;2.20;;;5.20;99.90;;;;;;5015289;28;20657;-79
2023/03/15 11:22:12;;;;;;;9.50;3.33;;;5.20;99.90;;;;;;5014843;28;20525;-79
2023/03/15 11:24:38;;;;;;;2.73;2.00;;;5.20;99.90;;;;;;4997496;28;20638;-80
2023/03/15 11:27:12;;;;;;;4.97;2.70;;;5.20;99.90;;;;;;5014967;28;20568;-81
2023/03/15 11:29:41;;;;;;;3.53;3.00;;;5.20;99.90;;;;;;5015414;28;20633;-79
2023/03/15 11:32:20;;;;;;;6.67;3.37;;;5.20;99.90;;;;;;4986587;28;20198;-80
2023/03/15 11:34:51;;;;;;;4.13;2.60;;;5.10;99.90;;;;;;4993919;28;20181;-79
2023/03/15 11:37:22;;;;;;;2.70;1.97;;;5.20;99.90;;;;;;4995023;28;20706;-80
2023/03/15 11:40:21;;;;;;;4.20;2.13;;;5.30;99.90;;;;;;4994069;28;20178;-79
2023/03/15 11:42:55;;;;;;;3.77;2.77;;;5.20;99.90;;;;;;4977952;28;20189;-80
2023/03/15 11:45:36;;;;;;;9.30;3.17;;;5.40;99.90;;;;;;5013626;28;20228;-80
2023/03/15 11:48:16;;;;;;;3.47;2.43;;;5.50;99.90;;;;;;5009224;28;20190;-80
2023/03/15 11:50:44;;;;;;;13.87;2.50;;;5.70;99.90;;;;;;5008034;28;20551;-80
2023/03/15 11:53:15;;;;;;;4.13;2.10;;;5.60;99.90;;;;;;5012092;28;20654;-80
2023/03/15 11:55:47;;;;;;;3.10;1.60;;;5.50;99.90;;;;;;5010002;28;20193;-80
2023/03/15 11:58:32;;;;;;;5.03;3.07;;;5.60;99.90;;;;;;4984925;28;20280;-79
2023/03/15 12:01:05;;;;;;;2.33;2.13;;;5.70;99.90;;;;;;5014379;28;20240;-80
2023/03/15 12:03:39;;;;;;;2.13;1.70;;;5.70;99.90;;;;;;5002988;28;20197;-80
2023/03/15 12:06:32;;;;;;;5.23;2.20;;;5.70;99.90;;;;;;4996489;28;20212;-80
2023/03/15 12:08:59;;;;;;;6.13;3.40;;;5.70;99.90;;;;;;4995947;28;20216;-79
2023/03/15 12:11:24;;;;;;;1.67;1.33;;;5.60;99.90;;;;;;5005564;28;20643;-80
2023/03/15 12:13:56;;;;;;;4.03;3.07;;;5.50;99.90;;;;;;4999030;28;20204;-79
2023/03/15 12:16:25;;;;;;;2.63;2.33;;;5.50;99.90;;;;;;5013925;28;20720;-79
2023/03/15 12:18:51;;;;;;;3.50;2.30;;;5.50;99.90;;;;;;5013923;28;20173;-79
2023/03/15 12:21:22;;;;;;;3.60;2.73;;;5.50;99.90;;;;;;4960702;28;20217;-78
2023/03/15 12:24:00;;;;;;;6.00;3.10;;;5.50;99.90;;;;;;4998020;28;20291;-78
2023/03/15 12:26:42;;;;;;;3.83;2.17;;;5.40;99.90;;;;;;5012817;28;20177;-78
2023/03/15 12:29:24;;;;;;;6.40;2.70;;;5.40;99.90;;;;;;5003416;28;20265;-82
2023/03/15 12:32:02;;;;;;;5.17;1.93;;;5.40;99.90;;;;;;5013859;28;20268;-79
2023/03/15 12:34:48;;;;;;;5.77;2.40;;;5.50;99.90;;;;;;5013018;28;20185;-78
2023/03/15 12:37:30;;;;;;;2.60;2.07;;;5.40;99.90;;;;;;5012420;28;20688;-79
2023/03/15 12:40:24;;;;;;;2.83;2.03;;;5.40;99.90;;;;;;5008496;28;20240;-79
2023/03/15 12:42:51;;;;;;;8.00;3.33;;;5.50;99.90;;;;;;4996148;28;20189;-80
2023/03/15 12:45:16;;;;;;;3.40;2.10;;;5.50;99.90;;;;;;4997075;28;20208;-80
2023/03/15 12:48:05;;;;;;;4.33;1.87;;;5.50;99.90;;;;;;5013015;28;20181;-80
2023/03/15 12:50:42;;;;;;;8.87;2.90;;;5.60;99.90;;;;;;5003540;28;20254;-80
2023/03/15 12:53:24;;;;;;;7.93;2.60;;;5.60;99.90;;;;;;5011833;28;20227;-80
2023/03/15 12:55:51;;;;;;;4.47;2.70;;;5.50;99.90;;;;;;4993767;28;20249;-80
2023/03/15 12:58:20;;;;;;;3.13;1.57;;;5.40;99.90;;;;;;4993435;28;20174;-81
2023/03/15 13:00:47;;;;;;;4.27;2.07;;;5.40;99.90;;;;;;4976529;28;20264;-81
2023/03/15 13:03:25;;;;;;;6.37;3.20;;;5.40;99.90;;;;;;4993589;28;20174;-81
2023/03/15 13:06:20;;;;;;;3.97;2.40;;;5.30;99.90;;;;;;4993386;28;20177;-80
2023/03/15 13:09:29;;;;;;;3.67;1.87;;;5.40;99.90;;;;;;4993224;28;20170;-82